Terminal Aerodrome Forecast
Issued by NWS Boston, MA

Home | Current Version | Previous Version | Text Only | Print | Product List | Glossary On
Versions: 1 2 3 4 5 6 7 8 9 10 11 12 13 14 15 16 17 18 19 20 21 22 23 24 25 26
000
FTUS41 KBOX 110528
TAFBDL
TAF
KBDL 110528Z 1106/1212 23010KT P6SM OVC120
     FM110800 22005KT P6SM VCSH OVC070
     FM111400 26007KT P6SM SCT060
     FM111900 29006KT P6SM SCT150
     FM120800 VRB03KT P6SM OVC030=

USA.gov is the U.S. government's official web portal to all federal, state and local government web resources and services.